sensor_id;sensor_type;location;lat;lon;timestamp;P1;durP1;ratioP1;P2;durP2;ratioP2
34725;SDS011;20951;50.818;4.344;2023-05-23T00:01:47;78.57;;;41.33;;
34725;SDS011;20951;50.818;4.344;2023-05-23T00:04:13;76.30;;;40.85;;
34725;SDS011;20951;50.818;4.344;2023-05-23T00:06:43;80.43;;;42.10;;
34725;SDS011;20951;50.818;4.344;2023-05-23T00:09:12;79.00;;;41.17;;
34725;SDS011;20951;50.818;4.344;2023-05-23T00:11:38;85.13;;;41.45;;
34725;SDS011;20951;50.818;4.344;2023-05-23T00:14:09;92.43;;;43.92;;
34725;SDS011;20951;50.818;4.344;2023-05-23T00:16:42;91.95;;;42.55;;
34725;SDS011;20951;50.818;4.344;2023-05-23T00:19:09;84.60;;;43.28;;
34725;SDS011;20951;50.818;4.344;2023-05-23T00:21:36;81.97;;;41.25;;
34725;SDS011;20951;50.818;4.344;2023-05-23T00:24:02;90.43;;;41.13;;
34725;SDS011;20951;50.818;4.344;2023-05-23T00:26:28;82.80;;;39.85;;
34725;SDS011;20951;50.818;4.344;2023-05-23T00:28:55;80.50;;;37.95;;
34725;SDS011;20951;50.818;4.344;2023-05-23T00:31:21;74.15;;;37.70;;
34725;SDS011;20951;50.818;4.344;2023-05-23T00:33:47;81.05;;;38.15;;
34725;SDS011;20951;50.818;4.344;2023-05-23T00:36:13;76.97;;;37.80;;
34725;SDS011;20951;50.818;4.344;2023-05-23T00:38:39;80.95;;;39.58;;
34725;SDS011;20951;50.818;4.344;2023-05-23T00:41:05;78.28;;;38.65;;
34725;SDS011;20951;50.818;4.344;2023-05-23T00:43:31;70.80;;;37.40;;
34725;SDS011;20951;50.818;4.344;2023-05-23T00:45:57;74.97;;;37.25;;
34725;SDS011;20951;50.818;4.344;2023-05-23T00:48:24;67.72;;;36.03;;
34725;SDS011;20951;50.818;4.344;2023-05-23T00:50:51;73.70;;;37.90;;
34725;SDS011;20951;50.818;4.344;2023-05-23T00:53:17;74.45;;;37.90;;
34725;SDS011;20951;50.818;4.344;2023-05-23T00:55:44;70.43;;;37.97;;
34725;SDS011;20951;50.818;4.344;2023-05-23T00:58:10;75.25;;;38.90;;
34725;SDS011;20951;50.818;4.344;2023-05-23T01:00:39;73.65;;;38.63;;
34725;SDS011;20951;50.818;4.344;2023-05-23T01:03:05;76.20;;;40.03;;
34725;SDS011;20951;50.818;4.344;2023-05-23T01:05:31;73.38;;;39.40;;
34725;SDS011;20951;50.818;4.344;2023-05-23T01:07:57;71.22;;;38.97;;
34725;SDS011;20951;50.818;4.344;2023-05-23T01:10:28;92.47;;;43.13;;
34725;SDS011;20951;50.818;4.344;2023-05-23T01:19:04;99.75;;;46.55;;
34725;SDS011;20951;50.818;4.344;2023-05-23T01:21:51;94.22;;;45.15;;
34725;SDS011;20951;50.818;4.344;2023-05-23T01:24:29;92.00;;;45.38;;
34725;SDS011;20951;50.818;4.344;2023-05-23T01:27:04;90.50;;;43.28;;
34725;SDS011;20951;50.818;4.344;2023-05-23T01:29:39;83.25;;;41.47;;
34725;SDS011;20951;50.818;4.344;2023-05-23T01:32:11;79.93;;;40.90;;
34725;SDS011;20951;50.818;4.344;2023-05-23T01:34:38;77.68;;;39.45;;
34725;SDS011;20951;50.818;4.344;2023-05-23T01:37:09;72.53;;;39.20;;
34725;SDS011;20951;50.818;4.344;2023-05-23T01:39:38;65.47;;;37.67;;
34725;SDS011;20951;50.818;4.344;2023-05-23T01:42:04;63.92;;;37.90;;
34725;SDS011;20951;50.818;4.344;2023-05-23T01:44:31;69.53;;;36.85;;
34725;SDS011;20951;50.818;4.344;2023-05-23T01:46:58;66.53;;;36.30;;
34725;SDS011;20951;50.818;4.344;2023-05-23T01:49:26;64.93;;;35.63;;
34725;SDS011;20951;50.818;4.344;2023-05-23T01:51:52;61.00;;;33.85;;
34725;SDS011;20951;50.818;4.344;2023-05-23T01:54:18;62.92;;;34.40;;
34725;SDS011;20951;50.818;4.344;2023-05-23T01:56:44;61.60;;;34.25;;
34725;SDS011;20951;50.818;4.344;2023-05-23T01:59:12;63.67;;;35.50;;
34725;SDS011;20951;50.818;4.344;2023-05-23T02:01:38;64.18;;;35.42;;
34725;SDS011;20951;50.818;4.344;2023-05-23T02:04:04;68.07;;;35.53;;
34725;SDS011;20951;50.818;4.344;2023-05-23T02:06:31;67.90;;;36.58;;
34725;SDS011;20951;50.818;4.344;2023-05-23T02:08:57;63.28;;;35.78;;
34725;SDS011;20951;50.818;4.344;2023-05-23T02:11:23;59.38;;;35.35;;
34725;SDS011;20951;50.818;4.344;2023-05-23T02:13:49;59.25;;;34.60;;
34725;SDS011;20951;50.818;4.344;2023-05-23T02:16:15;67.93;;;35.17;;
34725;SDS011;20951;50.818;4.344;2023-05-23T02:18:42;70.95;;;36.10;;
34725;SDS011;20951;50.818;4.344;2023-05-23T02:21:10;61.88;;;35.63;;
34725;SDS011;20951;50.818;4.344;2023-05-23T02:23:36;60.53;;;34.17;;
34725;SDS011;20951;50.818;4.344;2023-05-23T02:26:01;67.63;;;35.78;;
34725;SDS011;20951;50.818;4.344;2023-05-23T02:28:27;61.58;;;36.10;;
34725;SDS011;20951;50.818;4.344;2023-05-23T02:30:53;52.78;;;32.22;;
34725;SDS011;20951;50.818;4.344;2023-05-23T02:33:19;52.78;;;31.27;;
34725;SDS011;20951;50.818;4.344;2023-05-23T02:35:45;48.25;;;31.00;;
34725;SDS011;20951;50.818;4.344;2023-05-23T02:38:13;53.72;;;29.42;;
34725;SDS011;20951;50.818;4.344;2023-05-23T02:40:38;42.08;;;27.17;;
34725;SDS011;20951;50.818;4.344;2023-05-23T02:43:04;39.38;;;26.00;;
34725;SDS011;20951;50.818;4.344;2023-05-23T02:45:30;37.03;;;24.10;;
34725;SDS011;20951;50.818;4.344;2023-05-23T02:47:56;37.08;;;23.73;;
34725;SDS011;20951;50.818;4.344;2023-05-23T02:50:22;34.78;;;23.17;;
34725;SDS011;20951;50.818;4.344;2023-05-23T02:52:48;38.58;;;23.50;;
34725;SDS011;20951;50.818;4.344;2023-05-23T02:55:14;32.78;;;22.38;;
34725;SDS011;20951;50.818;4.344;2023-05-23T02:57:40;34.30;;;22.15;;
34725;SDS011;20951;50.818;4.344;2023-05-23T03:00:06;34.70;;;22.15;;
34725;SDS011;20951;50.818;4.344;2023-05-23T03:02:34;31.27;;;21.85;;
34725;SDS011;20951;50.818;4.344;2023-05-23T03:05:00;35.00;;;22.65;;
34725;SDS011;20951;50.818;4.344;2023-05-23T03:07:26;41.97;;;26.90;;
34725;SDS011;20951;50.818;4.344;2023-05-23T03:09:52;36.72;;;21.92;;
34725;SDS011;20951;50.818;4.344;2023-05-23T03:12:18;36.13;;;23.25;;
34725;SDS011;20951;50.818;4.344;2023-05-23T03:14:44;37.45;;;23.30;;
34725;SDS011;20951;50.818;4.344;2023-05-23T03:17:11;38.08;;;23.50;;
34725;SDS011;20951;50.818;4.344;2023-05-23T03:19:38;41.55;;;23.77;;
34725;SDS011;20951;50.818;4.344;2023-05-23T03:22:04;40.08;;;25.17;;
34725;SDS011;20951;50.818;4.344;2023-05-23T03:24:30;40.28;;;25.42;;
34725;SDS011;20951;50.818;4.344;2023-05-23T03:26:56;49.95;;;29.50;;
34725;SDS011;20951;50.818;4.344;2023-05-23T03:29:21;50.50;;;30.77;;
34725;SDS011;20951;50.818;4.344;2023-05-23T03:31:47;46.00;;;29.05;;
34725;SDS011;20951;50.818;4.344;2023-05-23T03:34:13;51.20;;;28.10;;
34725;SDS011;20951;50.818;4.344;2023-05-23T03:36:40;43.40;;;28.67;;
34725;SDS011;20951;50.818;4.344;2023-05-23T03:39:06;50.58;;;28.77;;
34725;SDS011;20951;50.818;4.344;2023-05-23T03:41:32;49.70;;;29.10;;
34725;SDS011;20951;50.818;4.344;2023-05-23T03:43:57;47.97;;;30.13;;
34725;SDS011;20951;50.818;4.344;2023-05-23T03:46:24;53.92;;;31.15;;
34725;SDS011;20951;50.818;4.344;2023-05-23T03:48:50;56.80;;;31.65;;
34725;SDS011;20951;50.818;4.344;2023-05-23T03:51:16;55.15;;;33.78;;
34725;SDS011;20951;50.818;4.344;2023-05-23T03:53:42;57.00;;;33.85;;
34725;SDS011;20951;50.818;4.344;2023-05-23T03:56:08;58.03;;;32.85;;
34725;SDS011;20951;50.818;4.344;2023-05-23T03:58:34;60.55;;;34.03;;
34725;SDS011;20951;50.818;4.344;2023-05-23T04:01:00;67.93;;;34.72;;
34725;SDS011;20951;50.818;4.344;2023-05-23T04:03:26;62.03;;;35.45;;
34725;SDS011;20951;50.818;4.344;2023-05-23T04:05:56;59.35;;;37.10;;
34725;SDS011;20951;50.818;4.344;2023-05-23T04:08:26;58.35;;;36.13;;
34725;SDS011;20951;50.818;4.344;2023-05-23T04:10:53;57.35;;;34.25;;
34725;SDS011;20951;50.818;4.344;2023-05-23T04:13:19;66.57;;;36.88;;
34725;SDS011;20951;50.818;4.344;2023-05-23T04:15:46;60.30;;;39.35;;
34725;SDS011;20951;50.818;4.344;2023-05-23T04:18:12;62.70;;;39.22;;
34725;SDS011;20951;50.818;4.344;2023-05-23T04:20:39;58.70;;;37.55;;
34725;SDS011;20951;50.818;4.344;2023-05-23T04:23:05;57.17;;;35.95;;
34725;SDS011;20951;50.818;4.344;2023-05-23T04:25:31;49.17;;;31.52;;
34725;SDS011;20951;50.818;4.344;2023-05-23T04:27:58;46.70;;;31.08;;
34725;SDS011;20951;50.818;4.344;2023-05-23T04:30:25;44.90;;;28.70;;
34725;SDS011;20951;50.818;4.344;2023-05-23T04:32:54;42.65;;;27.60;;
34725;SDS011;20951;50.818;4.344;2023-05-23T04:35:22;37.80;;;25.83;;
34725;SDS011;20951;50.818;4.344;2023-05-23T04:37:48;35.08;;;24.65;;
34725;SDS011;20951;50.818;4.344;2023-05-23T04:40:14;36.28;;;23.02;;
34725;SDS011;20951;50.818;4.344;2023-05-23T04:42:41;31.80;;;21.98;;
34725;SDS011;20951;50.818;4.344;2023-05-23T04:45:08;31.23;;;21.73;;
34725;SDS011;20951;50.818;4.344;2023-05-23T04:47:35;33.97;;;22.40;;
34725;SDS011;20951;50.818;4.344;2023-05-23T04:50:01;30.15;;;22.20;;
34725;SDS011;20951;50.818;4.344;2023-05-23T04:52:28;33.85;;;23.02;;
34725;SDS011;20951;50.818;4.344;2023-05-23T04:54:57;34.65;;;23.35;;
34725;SDS011;20951;50.818;4.344;2023-05-23T04:57:24;35.65;;;23.60;;
34725;SDS011;20951;50.818;4.344;2023-05-23T04:59:50;33.72;;;22.40;;
34725;SDS011;20951;50.818;4.344;2023-05-23T05:02:16;34.47;;;23.52;;
34725;SDS011;20951;50.818;4.344;2023-05-23T05:04:41;36.42;;;26.73;;
34725;SDS011;20951;50.818;4.344;2023-05-23T05:07:07;38.42;;;26.38;;
34725;SDS011;20951;50.818;4.344;2023-05-23T05:09:33;44.00;;;28.35;;
34725;SDS011;20951;50.818;4.344;2023-05-23T05:12:00;42.55;;;29.85;;
34725;SDS011;20951;50.818;4.344;2023-05-23T05:14:26;44.45;;;29.95;;
34725;SDS011;20951;50.818;4.344;2023-05-23T05:16:52;37.75;;;26.80;;
34725;SDS011;20951;50.818;4.344;2023-05-23T05:19:22;37.70;;;27.63;;
34725;SDS011;20951;50.818;4.344;2023-05-23T05:21:48;46.50;;;27.92;;
34725;SDS011;20951;50.818;4.344;2023-05-23T05:24:14;42.65;;;27.83;;
34725;SDS011;20951;50.818;4.344;2023-05-23T05:26:40;36.67;;;24.35;;
34725;SDS011;20951;50.818;4.344;2023-05-23T05:29:07;40.25;;;24.90;;
34725;SDS011;20951;50.818;4.344;2023-05-23T05:31:33;40.92;;;24.85;;
34725;SDS011;20951;50.818;4.344;2023-05-23T05:33:59;36.35;;;23.63;;
34725;SDS011;20951;50.818;4.344;2023-05-23T05:36:25;41.67;;;24.17;;
34725;SDS011;20951;50.818;4.344;2023-05-23T05:38:51;44.35;;;24.05;;
34725;SDS011;20951;50.818;4.344;2023-05-23T05:41:17;37.67;;;22.52;;
34725;SDS011;20951;50.818;4.344;2023-05-23T05:43:44;37.55;;;22.05;;
34725;SDS011;20951;50.818;4.344;2023-05-23T05:46:10;42.03;;;22.50;;
34725;SDS011;20951;50.818;4.344;2023-05-23T05:48:36;43.33;;;21.38;;
34725;SDS011;20951;50.818;4.344;2023-05-23T05:51:02;47.28;;;22.15;;
34725;SDS011;20951;50.818;4.344;2023-05-23T05:53:28;46.20;;;22.38;;
34725;SDS011;20951;50.818;4.344;2023-05-23T05:55:54;48.67;;;21.30;;
34725;SDS011;20951;50.818;4.344;2023-05-23T05:58:20;40.25;;;18.95;;
34725;SDS011;20951;50.818;4.344;2023-05-23T06:00:53;45.38;;;19.20;;
34725;SDS011;20951;50.818;4.344;2023-05-23T06:03:24;42.55;;;18.33;;
34725;SDS011;20951;50.818;4.344;2023-05-23T06:05:55;51.20;;;19.33;;
34725;SDS011;20951;50.818;4.344;2023-05-23T06:08:26;45.22;;;19.45;;
34725;SDS011;20951;50.818;4.344;2023-05-23T06:10:58;46.83;;;19.67;;
34725;SDS011;20951;50.818;4.344;2023-05-23T06:13:28;49.30;;;17.73;;
34725;SDS011;20951;50.818;4.344;2023-05-23T06:15:59;44.85;;;19.42;;
34725;SDS011;20951;50.818;4.344;2023-05-23T06:18:30;51.10;;;19.25;;
34725;SDS011;20951;50.818;4.344;2023-05-23T06:21:00;49.65;;;19.02;;
34725;SDS011;20951;50.818;4.344;2023-05-23T06:23:31;53.42;;;20.17;;
34725;SDS011;20951;50.818;4.344;2023-05-23T06:26:02;46.83;;;19.30;;
34725;SDS011;20951;50.818;4.344;2023-05-23T06:28:36;51.58;;;19.83;;
34725;SDS011;20951;50.818;4.344;2023-05-23T06:31:06;51.90;;;20.02;;
34725;SDS011;20951;50.818;4.344;2023-05-23T06:33:37;52.97;;;21.13;;
34725;SDS011;20951;50.818;4.344;2023-05-23T06:36:10;46.25;;;20.50;;
34725;SDS011;20951;50.818;4.344;2023-05-23T06:38:41;48.83;;;20.10;;
34725;SDS011;20951;50.818;4.344;2023-05-23T06:41:13;43.15;;;19.38;;
34725;SDS011;20951;50.818;4.344;2023-05-23T06:43:44;43.10;;;17.98;;
34725;SDS011;20951;50.818;4.344;2023-05-23T06:46:15;30.95;;;16.50;;
34725;SDS011;20951;50.818;4.344;2023-05-23T06:48:46;39.65;;;17.25;;
34725;SDS011;20951;50.818;4.344;2023-05-23T06:51:16;42.50;;;17.15;;
34725;SDS011;20951;50.818;4.344;2023-05-23T06:53:46;39.90;;;16.73;;
34725;SDS011;20951;50.818;4.344;2023-05-23T06:56:17;35.15;;;16.33;;
34725;SDS011;20951;50.818;4.344;2023-05-23T06:58:48;25.73;;;15.30;;
34725;SDS011;20951;50.818;4.344;2023-05-23T07:01:18;33.53;;;15.85;;
34725;SDS011;20951;50.818;4.344;2023-05-23T07:03:48;33.05;;;15.20;;
34725;SDS011;20951;50.818;4.344;2023-05-23T07:06:18;26.90;;;13.65;;
34725;SDS011;20951;50.818;4.344;2023-05-23T07:08:49;28.05;;;11.80;;
34725;SDS011;20951;50.818;4.344;2023-05-23T07:11:20;26.65;;;11.95;;
34725;SDS011;20951;50.818;4.344;2023-05-23T07:13:50;24.70;;;11.05;;
34725;SDS011;20951;50.818;4.344;2023-05-23T07:16:21;27.95;;;12.00;;
34725;SDS011;20951;50.818;4.344;2023-05-23T07:18:52;26.10;;;13.18;;
34725;SDS011;20951;50.818;4.344;2023-05-23T07:21:22;23.73;;;12.20;;
34725;SDS011;20951;50.818;4.344;2023-05-23T07:23:52;22.10;;;11.20;;
34725;SDS011;20951;50.818;4.344;2023-05-23T07:26:24;28.58;;;11.82;;
34725;SDS011;20951;50.818;4.344;2023-05-23T07:28:55;21.92;;;12.48;;
34725;SDS011;20951;50.818;4.344;2023-05-23T07:31:25;24.75;;;14.25;;
34725;SDS011;20951;50.818;4.344;2023-05-23T07:33:56;27.27;;;13.88;;
34725;SDS011;20951;50.818;4.344;2023-05-23T07:36:27;24.10;;;12.27;;
34725;SDS011;20951;50.818;4.344;2023-05-23T07:38:59;25.95;;;12.43;;
34725;SDS011;20951;50.818;4.344;2023-05-23T07:41:31;23.58;;;12.65;;
34725;SDS011;20951;50.818;4.344;2023-05-23T07:44:02;23.60;;;11.98;;
34725;SDS011;20951;50.818;4.344;2023-05-23T07:46:34;21.40;;;11.80;;
34725;SDS011;20951;50.818;4.344;2023-05-23T07:49:05;21.30;;;10.05;;
34725;SDS011;20951;50.818;4.344;2023-05-23T07:51:36;22.30;;;10.25;;
34725;SDS011;20951;50.818;4.344;2023-05-23T07:54:07;24.98;;;9.40;;
34725;SDS011;20951;50.818;4.344;2023-05-23T07:56:37;21.73;;;8.98;;
34725;SDS011;20951;50.818;4.344;2023-05-23T07:59:09;18.63;;;8.35;;
34725;SDS011;20951;50.818;4.344;2023-05-23T08:01:40;19.05;;;8.20;;
34725;SDS011;20951;50.818;4.344;2023-05-23T08:06:43;20.88;;;9.20;;
34725;SDS011;20951;50.818;4.344;2023-05-23T08:09:14;21.20;;;10.40;;
34725;SDS011;20951;50.818;4.344;2023-05-23T08:11:44;19.90;;;8.98;;
34725;SDS011;20951;50.818;4.344;2023-05-23T08:14:15;23.13;;;10.07;;
34725;SDS011;20951;50.818;4.344;2023-05-23T08:16:46;24.27;;;10.75;;
34725;SDS011;20951;50.818;4.344;2023-05-23T08:19:17;24.05;;;12.02;;
34725;SDS011;20951;50.818;4.344;2023-05-23T08:21:47;23.13;;;12.43;;
34725;SDS011;20951;50.818;4.344;2023-05-23T08:24:18;24.60;;;12.05;;
34725;SDS011;20951;50.818;4.344;2023-05-23T08:26:48;21.15;;;11.18;;
34725;SDS011;20951;50.818;4.344;2023-05-23T08:29:19;24.40;;;11.25;;
34725;SDS011;20951;50.818;4.344;2023-05-23T08:31:51;23.70;;;10.13;;
34725;SDS011;20951;50.818;4.344;2023-05-23T08:34:21;24.77;;;10.30;;
34725;SDS011;20951;50.818;4.344;2023-05-23T08:36:53;23.95;;;10.65;;
34725;SDS011;20951;50.818;4.344;2023-05-23T08:39:26;19.88;;;10.68;;
34725;SDS011;20951;50.818;4.344;2023-05-23T08:41:57;23.35;;;11.48;;
34725;SDS011;20951;50.818;4.344;2023-05-23T08:44:27;22.65;;;10.93;;
34725;SDS011;20951;50.818;4.344;2023-05-23T08:47:13;24.05;;;11.40;;
34725;SDS011;20951;50.818;4.344;2023-05-23T08:49:46;23.75;;;11.48;;
34725;SDS011;20951;50.818;4.344;2023-05-23T08:52:17;23.25;;;10.88;;
34725;SDS011;20951;50.818;4.344;2023-05-23T08:54:48;24.48;;;10.50;;
34725;SDS011;20951;50.818;4.344;2023-05-23T08:57:19;23.27;;;10.05;;
34725;SDS011;20951;50.818;4.344;2023-05-23T08:59:50;22.45;;;9.90;;
34725;SDS011;20951;50.818;4.344;2023-05-23T09:02:21;21.60;;;9.23;;
34725;SDS011;20951;50.818;4.344;2023-05-23T09:04:52;19.80;;;10.10;;
34725;SDS011;20951;50.818;4.344;2023-05-23T09:07:24;23.33;;;9.77;;
34725;SDS011;20951;50.818;4.344;2023-05-23T09:09:55;21.27;;;10.98;;
34725;SDS011;20951;50.818;4.344;2023-05-23T09:12:27;24.77;;;12.13;;
34725;SDS011;20951;50.818;4.344;2023-05-23T09:15:00;24.58;;;12.85;;
34725;SDS011;20951;50.818;4.344;2023-05-23T09:17:33;28.83;;;12.68;;
34725;SDS011;20951;50.818;4.344;2023-05-23T09:20:10;25.42;;;13.25;;
34725;SDS011;20951;50.818;4.344;2023-05-23T09:22:50;30.90;;;13.77;;
34725;SDS011;20951;50.818;4.344;2023-05-23T09:25:20;23.13;;;11.68;;
34725;SDS011;20951;50.818;4.344;2023-05-23T09:27:52;21.75;;;10.75;;
34725;SDS011;20951;50.818;4.344;2023-05-23T09:30:25;22.58;;;10.68;;
34725;SDS011;20951;50.818;4.344;2023-05-23T09:33:00;23.15;;;11.38;;
34725;SDS011;20951;50.818;4.344;2023-05-23T09:35:31;19.30;;;11.15;;
34725;SDS011;20951;50.818;4.344;2023-05-23T09:38:03;22.63;;;11.93;;
34725;SDS011;20951;50.818;4.344;2023-05-23T09:40:43;20.92;;;11.73;;
34725;SDS011;20951;50.818;4.344;2023-05-23T09:43:13;26.50;;;13.10;;
34725;SDS011;20951;50.818;4.344;2023-05-23T09:45:46;25.30;;;12.85;;
34725;SDS011;20951;50.818;4.344;2023-05-23T09:48:28;25.95;;;12.57;;
34725;SDS011;20951;50.818;4.344;2023-05-23T09:51:02;23.70;;;12.75;;
34725;SDS011;20951;50.818;4.344;2023-05-23T09:53:36;21.58;;;12.50;;
34725;SDS011;20951;50.818;4.344;2023-05-23T09:56:07;21.00;;;12.82;;
34725;SDS011;20951;50.818;4.344;2023-05-23T09:58:39;22.48;;;11.48;;
34725;SDS011;20951;50.818;4.344;2023-05-23T10:03:44;23.25;;;12.68;;
34725;SDS011;20951;50.818;4.344;2023-05-23T10:06:40;28.95;;;13.38;;
34725;SDS011;20951;50.818;4.344;2023-05-23T10:09:12;24.10;;;12.65;;
34725;SDS011;20951;50.818;4.344;2023-05-23T10:14:26;21.85;;;12.90;;
34725;SDS011;20951;50.818;4.344;2023-05-23T10:17:06;20.98;;;12.05;;
34725;SDS011;20951;50.818;4.344;2023-05-23T10:19:52;20.10;;;12.20;;
34725;SDS011;20951;50.818;4.344;2023-05-23T10:22:33;15.18;;;10.52;;
34725;SDS011;20951;50.818;4.344;2023-05-23T10:25:05;16.52;;;10.05;;
34725;SDS011;20951;50.818;4.344;2023-05-23T10:27:38;16.97;;;10.87;;
34725;SDS011;20951;50.818;4.344;2023-05-23T10:30:08;18.45;;;8.77;;
34725;SDS011;20951;50.818;4.344;2023-05-23T10:32:42;18.27;;;7.78;;
34725;SDS011;20951;50.818;4.344;2023-05-23T10:35:36;13.38;;;7.30;;
34725;SDS011;20951;50.818;4.344;2023-05-23T10:46:11;13.77;;;6.10;;
34725;SDS011;20951;50.818;4.344;2023-05-23T10:48:42;15.50;;;6.60;;
34725;SDS011;20951;50.818;4.344;2023-05-23T10:51:13;12.90;;;6.63;;
34725;SDS011;20951;50.818;4.344;2023-05-23T10:53:45;17.83;;;6.78;;
34725;SDS011;20951;50.818;4.344;2023-05-23T10:56:20;19.25;;;6.90;;
34725;SDS011;20951;50.818;4.344;2023-05-23T10:58:53;13.18;;;5.70;;
34725;SDS011;20951;50.818;4.344;2023-05-23T11:01:24;17.42;;;5.15;;
34725;SDS011;20951;50.818;4.344;2023-05-23T11:03:56;11.05;;;4.05;;
34725;SDS011;20951;50.818;4.344;2023-05-23T11:06:32;9.32;;;3.55;;
34725;SDS011;20951;50.818;4.344;2023-05-23T11:09:11;10.02;;;3.40;;
34725;SDS011;20951;50.818;4.344;2023-05-23T11:12:00;9.15;;;3.47;;
34725;SDS011;20951;50.818;4.344;2023-05-23T11:17:28;6.35;;;3.25;;
34725;SDS011;20951;50.818;4.344;2023-05-23T11:20:06;12.55;;;4.82;;
34725;SDS011;20951;50.818;4.344;2023-05-23T11:22:37;14.73;;;5.10;;
34725;SDS011;20951;50.818;4.344;2023-05-23T11:25:19;15.60;;;5.28;;
34725;SDS011;20951;50.818;4.344;2023-05-23T11:28:05;10.80;;;4.68;;
34725;SDS011;20951;50.818;4.344;2023-05-23T11:30:36;13.48;;;4.80;;
34725;SDS011;20951;50.818;4.344;2023-05-23T11:33:07;14.43;;;4.40;;
34725;SDS011;20951;50.818;4.344;2023-05-23T11:35:45;11.88;;;4.10;;
34725;SDS011;20951;50.818;4.344;2023-05-23T11:38:16;16.90;;;4.75;;
34725;SDS011;20951;50.818;4.344;2023-05-23T11:40:47;12.05;;;4.38;;
34725;SDS011;20951;50.818;4.344;2023-05-23T11:43:20;16.58;;;4.60;;
34725;SDS011;20951;50.818;4.344;2023-05-23T11:45:51;15.80;;;4.97;;
34725;SDS011;20951;50.818;4.344;2023-05-23T11:48:23;14.77;;;4.90;;
34725;SDS011;20951;50.818;4.344;2023-05-23T11:50:54;13.98;;;4.40;;
34725;SDS011;20951;50.818;4.344;2023-05-23T11:53:27;16.67;;;4.38;;
34725;SDS011;20951;50.818;4.344;2023-05-23T11:55:57;17.25;;;4.38;;
34725;SDS011;20951;50.818;4.344;2023-05-23T11:58:29;18.98;;;5.05;;
34725;SDS011;20951;50.818;4.344;2023-05-23T12:01:03;15.85;;;4.85;;
34725;SDS011;20951;50.818;4.344;2023-05-23T12:03:43;13.73;;;4.60;;
34725;SDS011;20951;50.818;4.344;2023-05-23T12:06:18;15.38;;;4.35;;
34725;SDS011;20951;50.818;4.344;2023-05-23T12:08:50;21.20;;;4.80;;
34725;SDS011;20951;50.818;4.344;2023-05-23T12:11:21;20.70;;;4.75;;
34725;SDS011;20951;50.818;4.344;2023-05-23T12:13:53;19.08;;;4.70;;
34725;SDS011;20951;50.818;4.344;2023-05-23T12:16:31;21.95;;;5.10;;
34725;SDS011;20951;50.818;4.344;2023-05-23T12:19:02;21.48;;;4.18;;
34725;SDS011;20951;50.818;4.344;2023-05-23T12:21:46;18.80;;;4.53;;
34725;SDS011;20951;50.818;4.344;2023-05-23T12:24:17;13.48;;;4.55;;
34725;SDS011;20951;50.818;4.344;2023-05-23T12:26:51;22.08;;;5.10;;
34725;SDS011;20951;50.818;4.344;2023-05-23T12:29:27;18.13;;;3.95;;
34725;SDS011;20951;50.818;4.344;2023-05-23T12:32:03;15.90;;;5.00;;
34725;SDS011;20951;50.818;4.344;2023-05-23T12:34:33;18.65;;;4.60;;
34725;SDS011;20951;50.818;4.344;2023-05-23T12:37:11;15.63;;;4.70;;
34725;SDS011;20951;50.818;4.344;2023-05-23T12:39:42;18.05;;;4.80;;
34725;SDS011;20951;50.818;4.344;2023-05-23T12:42:13;17.85;;;4.80;;
34725;SDS011;20951;50.818;4.344;2023-05-23T12:44:44;16.20;;;4.85;;
34725;SDS011;20951;50.818;4.344;2023-05-23T12:47:18;17.55;;;4.78;;
34725;SDS011;20951;50.818;4.344;2023-05-23T12:49:49;23.10;;;5.30;;
34725;SDS011;20951;50.818;4.344;2023-05-23T12:52:21;17.35;;;4.63;;
34725;SDS011;20951;50.818;4.344;2023-05-23T12:54:52;21.30;;;4.70;;
34725;SDS011;20951;50.818;4.344;2023-05-23T12:57:23;18.23;;;5.13;;
34725;SDS011;20951;50.818;4.344;2023-05-23T12:59:55;19.02;;;4.63;;
34725;SDS011;20951;50.818;4.344;2023-05-23T13:02:27;17.27;;;5.00;;
34725;SDS011;20951;50.818;4.344;2023-05-23T13:04:59;20.45;;;5.15;;
34725;SDS011;20951;50.818;4.344;2023-05-23T13:07:30;17.50;;;4.70;;
34725;SDS011;20951;50.818;4.344;2023-05-23T13:10:01;18.42;;;4.63;;
34725;SDS011;20951;50.818;4.344;2023-05-23T13:12:31;17.85;;;4.47;;
34725;SDS011;20951;50.818;4.344;2023-05-23T13:15:01;19.25;;;4.55;;
34725;SDS011;20951;50.818;4.344;2023-05-23T13:17:31;20.45;;;4.78;;
34725;SDS011;20951;50.818;4.344;2023-05-23T13:20:02;23.52;;;5.80;;
34725;SDS011;20951;50.818;4.344;2023-05-23T13:22:33;18.27;;;4.80;;
34725;SDS011;20951;50.818;4.344;2023-05-23T13:25:04;19.55;;;5.10;;
34725;SDS011;20951;50.818;4.344;2023-05-23T13:27:34;17.48;;;4.43;;
34725;SDS011;20951;50.818;4.344;2023-05-23T13:30:05;21.30;;;4.88;;
34725;SDS011;20951;50.818;4.344;2023-05-23T13:32:35;20.02;;;5.07;;
34725;SDS011;20951;50.818;4.344;2023-05-23T13:35:05;21.05;;;5.70;;
34725;SDS011;20951;50.818;4.344;2023-05-23T13:37:36;19.73;;;4.82;;
34725;SDS011;20951;50.818;4.344;2023-05-23T13:40:11;20.13;;;4.88;;
34725;SDS011;20951;50.818;4.344;2023-05-23T13:42:46;18.42;;;5.03;;
34725;SDS011;20951;50.818;4.344;2023-05-23T13:45:19;17.50;;;4.25;;
34725;SDS011;20951;50.818;4.344;2023-05-23T13:47:51;16.90;;;4.93;;
34725;SDS011;20951;50.818;4.344;2023-05-23T13:50:22;15.27;;;4.43;;
34725;SDS011;20951;50.818;4.344;2023-05-23T13:52:53;17.67;;;4.70;;
34725;SDS011;20951;50.818;4.344;2023-05-23T13:55:24;20.77;;;4.93;;
34725;SDS011;20951;50.818;4.344;2023-05-23T13:57:54;19.95;;;4.88;;
34725;SDS011;20951;50.818;4.344;2023-05-23T14:00:26;20.45;;;4.70;;
34725;SDS011;20951;50.818;4.344;2023-05-23T14:02:57;21.33;;;4.72;;
34725;SDS011;20951;50.818;4.344;2023-05-23T14:05:28;16.10;;;4.75;;
34725;SDS011;20951;50.818;4.344;2023-05-23T14:08:01;18.27;;;4.88;;
34725;SDS011;20951;50.818;4.344;2023-05-23T14:10:33;14.43;;;4.88;;
34725;SDS011;20951;50.818;4.344;2023-05-23T14:13:07;19.25;;;5.03;;
34725;SDS011;20951;50.818;4.344;2023-05-23T14:15:38;16.95;;;4.60;;
34725;SDS011;20951;50.818;4.344;2023-05-23T14:18:10;17.13;;;4.38;;
34725;SDS011;20951;50.818;4.344;2023-05-23T14:20:41;14.23;;;4.30;;
34725;SDS011;20951;50.818;4.344;2023-05-23T14:23:11;20.45;;;5.25;;
34725;SDS011;20951;50.818;4.344;2023-05-23T14:25:42;16.58;;;5.40;;
34725;SDS011;20951;50.818;4.344;2023-05-23T14:28:13;19.08;;;4.60;;
34725;SDS011;20951;50.818;4.344;2023-05-23T14:30:43;19.98;;;5.35;;
34725;SDS011;20951;50.818;4.344;2023-05-23T14:33:13;20.70;;;4.85;;
34725;SDS011;20951;50.818;4.344;2023-05-23T14:35:44;17.15;;;5.28;;
34725;SDS011;20951;50.818;4.344;2023-05-23T14:38:16;16.60;;;4.53;;
34725;SDS011;20951;50.818;4.344;2023-05-23T14:40:47;18.92;;;4.55;;
34725;SDS011;20951;50.818;4.344;2023-05-23T14:43:19;21.42;;;5.20;;
34725;SDS011;20951;50.818;4.344;2023-05-23T14:45:49;24.35;;;4.65;;
34725;SDS011;20951;50.818;4.344;2023-05-23T14:48:20;17.83;;;4.60;;
34725;SDS011;20951;50.818;4.344;2023-05-23T14:50:52;21.40;;;4.75;;
34725;SDS011;20951;50.818;4.344;2023-05-23T14:53:28;20.58;;;5.03;;
34725;SDS011;20951;50.818;4.344;2023-05-23T14:55:58;16.63;;;4.60;;
34725;SDS011;20951;50.818;4.344;2023-05-23T14:58:29;19.08;;;4.47;;
34725;SDS011;20951;50.818;4.344;2023-05-23T15:01:00;17.08;;;4.82;;
34725;SDS011;20951;50.818;4.344;2023-05-23T15:03:31;21.08;;;4.40;;
34725;SDS011;20951;50.818;4.344;2023-05-23T15:06:03;15.88;;;4.18;;
34725;SDS011;20951;50.818;4.344;2023-05-23T15:08:36;13.98;;;4.18;;